Time;durP1;ratioP1;P1;durP2;ratioP2;P2;SDS_P1;SDS_P2;PMS_P1;PMS_P2;Temp;Humidity;BMP_temperature;BMP_pressure;BME280_temperature;BME280_humidity;BME280_pressure;Samples;Min_cycle;Max_cycle;Signal;HPM_P1;HPM_P2
2021/01/31 00:00:39;;;;;;;10.30;6.13;;;333.10;1254.40;;;;;;5033204;28;20376;-51
2021/01/31 00:03:12;;;;;;;10.63;5.82;;;332.90;1280.00;;;;;;5032817;28;20029;-51
2021/01/31 00:05:38;;;;;;;13.88;6.78;;;333.00;1280.00;;;;;;5032676;28;20014;-51
2021/01/31 00:08:07;;;;;;;11.13;5.68;;;333.00;1280.00;;;;;;5032316;28;20471;-51
2021/01/31 00:10:34;;;;;;;11.63;7.82;;;333.00;1280.00;;;;;;5032399;28;20033;-51
2021/01/31 00:13:01;;;;;;;11.30;7.30;;;333.00;1254.40;;;;;;5033002;28;20472;-52
2021/01/31 00:15:31;;;;;;;13.82;6.38;;;333.00;1254.40;;;;;;5033119;28;20144;-52
2021/01/31 00:17:56;;;;;;;12.82;8.65;;;333.10;1254.40;;;;;;5022514;28;20026;-52
2021/01/31 00:20:25;;;;;;;13.23;8.05;;;333.10;1254.40;;;;;;5044250;28;20102;-55
2021/01/31 00:22:52;;;;;;;8.98;5.63;;;333.10;1254.40;;;;;;5042119;28;20035;-50
2021/01/31 00:25:18;;;;;;;10.55;6.55;;;333.10;1254.40;;;;;;5032753;28;20077;-51
2021/01/31 00:27:44;;;;;;;16.75;7.80;;;333.00;1254.40;;;;;;5032603;28;20207;-51
2021/01/31 00:30:35;;;;;;;10.55;6.00;;;333.00;1254.40;;;;;;5032450;28;20100;-51
2021/01/31 00:33:06;;;;;;;9.18;5.47;;;332.90;1254.40;;;;;;5032706;28;20033;-51
2021/01/31 00:35:34;;;;;;;13.80;6.82;;;332.90;1254.40;;;;;;5032945;28;20032;-50
2021/01/31 00:38:00;;;;;;;11.48;7.07;;;332.90;1254.40;;;;;;5032716;28;20112;-51
2021/01/31 00:40:26;;;;;;;11.40;6.40;;;332.90;1254.40;;;;;;5033634;28;20589;-51
2021/01/31 00:42:52;;;;;;;9.50;5.25;;;332.90;1228.80;;;;;;5032561;28;20116;-51
2021/01/31 00:45:20;;;;;;;9.55;6.10;;;332.80;1228.80;;;;;;5032936;28;20035;-51
2021/01/31 00:47:46;;;;;;;10.82;6.05;;;332.80;1228.80;;;;;;5029588;28;20080;-51
2021/01/31 00:50:17;;;;;;;8.70;5.20;;;308.00;1228.80;;;;;;5033173;28;20069;-51
2021/01/31 00:52:43;;;;;;;9.60;6.28;;;308.00;1228.80;;;;;;5032575;28;20024;-51
2021/01/31 00:55:10;;;;;;;8.73;5.53;;;308.00;1228.80;;;;;;5052590;28;20021;-51
2021/01/31 00:57:35;;;;;;;10.05;5.75;;;308.00;1228.80;;;;;;5052339;28;20084;-50
2021/01/31 01:00:26;;;;;;;8.65;5.63;;;308.00;1228.80;;;;;;5051927;28;20029;-55
2021/01/31 01:02:52;;;;;;;9.63;7.03;;;308.00;1228.80;;;;;;5051600;28;20051;-55
2021/01/31 01:05:20;;;;;;;11.88;7.55;;;308.00;1228.80;;;;;;5052226;28;20025;-55
2021/01/31 01:07:46;;;;;;;12.98;6.20;;;307.90;1254.40;;;;;;5051934;28;20049;-55
2021/01/31 01:10:13;;;;;;;8.85;4.90;;;307.80;1254.40;;;;;;5047537;28;20440;-55
2021/01/31 01:12:39;;;;;;;13.00;7.05;;;307.70;1254.40;;;;;;5043201;28;20020;-56
2021/01/31 01:15:06;;;;;;;9.35;5.63;;;307.60;1254.40;;;;;;5035135;28;20104;-55
2021/01/31 01:17:32;;;;;;;10.73;5.68;;;307.50;1280.00;;;;;;5031633;28;20035;-55
2021/01/31 01:19:57;;;;;;;11.25;6.03;;;307.50;1280.00;;;;;;5032012;28;20029;-56
2021/01/31 01:22:23;;;;;;;13.63;6.15;;;307.40;1280.00;;;;;;5031478;28;20022;-56
2021/01/31 01:24:52;;;;;;;8.80;5.38;;;307.30;1305.60;;;;;;5032603;28;20021;-56
2021/01/31 01:27:22;;;;;;;10.70;5.20;;;307.30;1305.60;;;;;;5034155;28;20070;-56
2021/01/31 01:29:48;;;;;;;10.02;5.53;;;307.30;1305.60;;;;;;5051449;28;20083;-56
2021/01/31 01:32:14;;;;;;;9.60;5.55;;;307.30;1305.60;;;;;;5051921;28;20532;-56
2021/01/31 01:34:42;;;;;;;7.50;4.80;;;307.30;1305.60;;;;;;5051460;28;20039;-56
2021/01/31 01:37:08;;;;;;;11.95;4.43;;;307.40;1280.00;;;;;;5034596;28;20087;-56
2021/01/31 01:39:34;;;;;;;8.25;4.65;;;307.40;1280.00;;;;;;5018150;28;20095;-56
2021/01/31 01:42:00;;;;;;;9.18;4.35;;;307.40;1280.00;;;;;;5016396;28;20026;-56
2021/01/31 01:44:26;;;;;;;8.10;5.22;;;307.50;1280.00;;;;;;5020579;28;20021;-56
2021/01/31 01:46:54;;;;;;;10.02;5.65;;;307.40;1280.00;;;;;;5018002;28;20036;-55
2021/01/31 01:49:25;;;;;;;10.02;5.57;;;307.40;1280.00;;;;;;5018619;28;20026;-55
2021/01/31 01:51:57;;;;;;;11.50;5.13;;;307.40;1280.00;;;;;;5016664;28;20369;-56
2021/01/31 01:54:56;;;;;;;8.60;4.57;;;307.40;1280.00;;;;;;5021180;28;20029;-56
2021/01/31 01:57:26;;;;;;;10.35;4.13;;;307.40;1280.00;;;;;;5019627;28;20021;-55
2021/01/31 01:59:54;;;;;;;10.27;4.95;;;307.40;1280.00;;;;;;5017070;28;20033;-56
2021/01/31 02:02:30;;;;;;;8.95;4.60;;;307.40;1305.60;;;;;;5017630;28;20029;-56
2021/01/31 02:04:59;;;;;;;10.85;4.88;;;307.40;1305.60;;;;;;5024199;28;20025;-56
2021/01/31 02:07:25;;;;;;;9.23;4.30;;;307.40;1305.60;;;;;;5035244;28;20053;-56
2021/01/31 02:09:51;;;;;;;9.38;4.80;;;307.40;1305.60;;;;;;5035126;28;20040;-56
2021/01/31 02:12:24;;;;;;;9.82;4.40;;;307.50;1280.00;;;;;;5035201;28;20033;-56
2021/01/31 02:14:52;;;;;;;8.75;4.13;;;307.50;1280.00;;;;;;5026467;28;20040;-56
2021/01/31 02:17:27;;;;;;;11.00;4.32;;;307.50;1280.00;;;;;;5034972;28;20103;-55
2021/01/31 02:20:27;;;;;;;6.47;3.60;;;307.50;1280.00;;;;;;5034861;28;20021;-56
2021/01/31 02:23:25;;;;;;;8.07;4.15;;;307.50;1280.00;;;;;;5029679;28;20033;-55
2021/01/31 02:26:05;;;;;;;7.15;3.95;;;307.40;1280.00;;;;;;5035279;28;20021;-56
2021/01/31 02:29:01;;;;;;;7.50;4.18;;;307.40;1305.60;;;;;;5034262;28;20068;-56
2021/01/31 02:31:46;;;;;;;6.82;4.10;;;307.40;1305.60;;;;;;5029900;28;20115;-57
2021/01/31 02:34:28;;;;;;;9.40;4.00;;;307.40;1280.00;;;;;;5033850;28;20053;-57
2021/01/31 02:37:00;;;;;;;5.70;3.58;;;307.20;1305.60;;;;;;5051194;28;20418;-55
2021/01/31 02:39:55;;;;;;;6.57;3.72;;;282.50;1305.60;;;;;;5053811;28;20112;-56
2021/01/31 02:42:35;;;;;;;7.65;4.03;;;282.30;1331.20;;;;;;5031871;28;20038;-56
2021/01/31 02:45:09;;;;;;;10.25;6.30;;;282.10;1382.40;;;;;;5032332;28;20029;-57
2021/01/31 02:47:41;;;;;;;12.55;6.07;;;282.10;1433.60;;;;;;5032307;28;20380;-57
2021/01/31 02:50:21;;;;;;;15.80;7.47;;;281.80;1459.20;;;;;;5018750;28;20030;-57
2021/01/31 02:53:03;;;;;;;16.90;9.30;;;281.70;1510.40;;;;;;5007081;28;20407;-56
2021/01/31 02:55:40;;;;;;;16.95;9.70;;;281.70;1510.40;;;;;;5032200;28;20026;-57
2021/01/31 02:58:39;;;;;;;16.73;10.50;;;281.60;1536.00;;;;;;5032093;28;20099;-57
2021/01/31 03:01:22;;;;;;;16.23;9.15;;;256.90;1536.00;;;;;;4987067;28;20035;-57
2021/01/31 03:03:59;;;;;;;20.90;11.32;;;256.80;1536.00;;;;;;4987387;28;20035;-57
2021/01/31 03:06:30;;;;;;;18.20;10.82;;;256.50;1561.60;;;;;;4992632;28;20053;-56
2021/01/31 03:09:02;;;;;;;22.83;11.82;;;256.50;1561.60;;;;;;4992264;28;20049;-57
2021/01/31 03:11:48;;;;;;;16.85;10.60;;;256.40;1561.60;;;;;;4992950;28;20109;-57
2021/01/31 03:14:23;;;;;;;20.30;11.88;;;256.50;1561.60;;;;;;4992242;28;20378;-57
2021/01/31 03:16:58;;;;;;;21.20;11.13;;;256.30;1561.60;;;;;;4992895;28;20026;-57
2021/01/31 03:19:44;;;;;;;18.38;10.55;;;256.40;1561.60;;;;;;5003231;28;20045;-57
2021/01/31 03:22:38;;;;;;;18.08;10.77;;;256.50;1561.60;;;;;;5012100;28;20042;-57
2021/01/31 03:25:12;;;;;;;15.35;10.52;;;256.60;1536.00;;;;;;5005366;28;20080;-57
2021/01/31 03:27:40;;;;;;;20.55;10.30;;;256.70;1536.00;;;;;;5006746;28;20069;-57
2021/01/31 03:30:08;;;;;;;20.27;10.63;;;256.80;1536.00;;;;;;5012005;28;20045;-57
2021/01/31 03:32:48;;;;;;;17.63;10.18;;;256.80;1536.00;;;;;;5009386;28;20493;-56
2021/01/31 03:35:19;;;;;;;15.57;9.48;;;256.90;1536.00;;;;;;5012100;28;20026;-57
2021/01/31 03:37:53;;;;;;;15.73;8.60;;;256.90;1536.00;;;;;;5037816;28;20076;-57
2021/01/31 03:40:23;;;;;;;14.63;9.85;;;281.60;1510.40;;;;;;5053716;28;20029;-57
2021/01/31 03:42:49;;;;;;;14.20;9.32;;;281.70;1536.00;;;;;;5045648;28;20030;-57
2021/01/31 03:45:22;;;;;;;14.82;8.98;;;281.70;1510.40;;;;;;5047270;28;20025;-57
2021/01/31 03:48:10;;;;;;;18.40;10.52;;;281.80;1510.40;;;;;;5053683;28;20025;-57
2021/01/31 03:50:36;;;;;;;20.60;11.23;;;281.60;1561.60;;;;;;5053136;28;20513;-57
2021/01/31 03:53:02;;;;;;;20.33;11.60;;;281.60;1587.20;;;;;;5053691;28;20096;-57
2021/01/31 03:55:28;;;;;;;20.02;12.45;;;281.60;1612.80;;;;;;5040068;28;20488;-56
2021/01/31 03:58:03;;;;;;;17.33;11.10;;;281.60;1612.80;;;;;;5052417;28;20029;-57
2021/01/31 04:00:31;;;;;;;23.33;13.60;;;256.90;1561.60;;;;;;5053336;28;20033;-57
2021/01/31 04:03:13;;;;;;;26.58;13.65;;;256.80;1587.20;;;;;;5052957;28;20094;-56
2021/01/31 04:05:51;;;;;;;22.08;12.50;;;256.60;1587.20;;;;;;5052995;28;20042;-57
2021/01/31 04:08:18;;;;;;;30.77;13.75;;;256.60;1612.80;;;;;;5052949;28;20124;-56
2021/01/31 04:10:44;;;;;;;25.08;12.50;;;256.50;1612.80;;;;;;5053169;28;20502;-57
2021/01/31 04:13:12;;;;;;;27.15;14.98;;;256.40;1612.80;;;;;;5052799;28;20075;-57
2021/01/31 04:15:55;;;;;;;23.27;14.57;;;256.60;1612.80;;;;;;5052987;28;20017;-57
2021/01/31 04:18:23;;;;;;;26.45;14.35;;;256.60;1587.20;;;;;;5052620;28;20032;-57
2021/01/31 04:20:50;;;;;;;25.05;14.50;;;256.50;1612.80;;;;;;5052640;28;20074;-57
2021/01/31 04:23:16;;;;;;;21.15;14.02;;;256.60;1612.80;;;;;;5052501;28;20112;-57
2021/01/31 04:25:43;;;;;;;23.85;15.15;;;256.50;1638.40;;;;;;5053495;28;20467;-56
2021/01/31 04:28:15;;;;;;;25.25;13.80;;;256.40;1664.00;;;;;;5037240;28;20033;-56
2021/01/31 04:30:43;;;;;;;26.05;15.20;;;256.40;1638.40;;;;;;5033049;28;20056;-57
2021/01/31 04:33:11;;;;;;;24.88;14.77;;;256.40;1638.40;;;;;;5019092;28;20033;-57
2021/01/31 04:35:36;;;;;;;26.35;14.95;;;256.30;1664.00;;;;;;5032658;28;20419;-56
2021/01/31 04:38:03;;;;;;;31.58;17.63;;;256.30;1689.60;;;;;;5032641;28;20120;-57
2021/01/31 04:40:30;;;;;;;23.63;15.38;;;256.30;1664.00;;;;;;5032127;28;20060;-56
2021/01/31 04:42:55;;;;;;;27.73;16.27;;;256.10;1689.60;;;;;;5032660;28;20521;-57
2021/01/31 04:45:22;;;;;;;26.08;15.75;;;256.10;1689.60;;;;;;5032345;28;20029;-57
2021/01/31 04:48:02;;;;;;;25.23;16.58;;;256.20;1689.60;;;;;;5032456;28;20034;-56
2021/01/31 04:50:57;;;;;;;27.50;16.30;;;256.10;1689.60;;;;;;5032211;28;20037;-57
2021/01/31 04:54:03;;;;;;;29.17;18.13;;;256.20;1689.60;;;;;;5032099;28;20033;-57
2021/01/31 04:56:35;;;;;;;28.55;17.38;;;256.20;1715.20;;;;;;5019257;28;20029;-56
2021/01/31 04:59:30;;;;;;;33.35;18.63;;;256.10;1715.20;;;;;;5029958;28;20036;-56
2021/01/31 05:02:14;;;;;;;29.27;18.33;;;256.10;1715.20;;;;;;5029931;28;20033;-56
2021/01/31 05:04:49;;;;;;;31.90;18.65;;;256.10;1715.20;;;;;;5029603;28;20030;-57
2021/01/31 05:07:15;;;;;;;32.58;20.65;;;231.30;1740.80;;;;;;5029373;28;20726;-57
2021/01/31 05:09:42;;;;;;;31.35;19.70;;;231.10;1766.40;;;;;;5030206;28;20108;-56
2021/01/31 05:12:39;;;;;;;40.63;23.15;;;231.10;1740.80;;;;;;5029636;28;20515;-57
2021/01/31 05:15:08;;;;;;;35.97;22.38;;;230.90;1766.40;;;;;;5009196;28;20132;-57
2021/01/31 05:17:34;;;;;;;37.65;23.92;;;230.90;1792.00;;;;;;5029751;28;20029;-57
2021/01/31 05:20:03;;;;;;;35.92;21.88;;;230.80;1792.00;;;;;;5029971;28;20116;-56
2021/01/31 05:22:33;;;;;;;33.85;20.35;;;230.50;1843.20;;;;;;5029764;28;20033;-57
2021/01/31 05:24:59;;;;;;;35.72;20.13;;;205.60;1920.00;;;;;;5029801;28;20384;-57
2021/01/31 05:27:29;;;;;;;32.35;19.10;;;205.60;1920.00;;;;;;5029321;28;20036;-56
2021/01/31 05:29:55;;;;;;;30.15;21.02;;;205.70;1920.00;;;;;;5028802;28;20191;-57
2021/01/31 05:32:20;;;;;;;30.45;19.13;;;230.40;1894.40;;;;;;5026664;28;20516;-57
2021/01/31 05:34:51;;;;;;;31.65;19.48;;;205.60;1894.40;;;;;;5030867;28;20061;-57
2021/01/31 05:37:23;;;;;;;31.00;19.00;;;205.50;1945.60;;;;;;5031553;28;20445;-57
2021/01/31 05:39:59;;;;;;;38.22;20.58;;;205.20;1945.60;;;;;;5031820;28;20415;-56
2021/01/31 05:42:35;;;;;;;33.65;21.23;;;205.20;1971.20;;;;;;5031472;28;20040;-56
2021/01/31 05:45:14;;;;;;;30.20;19.27;;;205.50;1945.60;;;;;;5031137;28;20032;-57
2021/01/31 05:47:42;;;;;;;31.88;20.88;;;205.50;1945.60;;;;;;5031217;28;20068;-56
2021/01/31 05:50:32;;;;;;;35.05;20.33;;;205.50;1971.20;;;;;;5031602;28;20036;-56
2021/01/31 05:53:18;;;;;;;33.72;21.00;;;205.60;1945.60;;;;;;5031665;28;20498;-56
2021/01/31 05:55:44;;;;;;;30.30;18.60;;;205.60;1971.20;;;;;;5031673;28;20029;-56
2021/01/31 05:58:21;;;;;;;35.17;20.88;;;230.40;1971.20;;;;;;5031523;28;20024;-57
2021/01/31 06:01:14;;;;;;;31.27;19.40;;;230.40;1945.60;;;;;;5031750;28;20029;-56
2021/01/31 06:03:40;;;;;;;35.53;19.35;;;205.70;1971.20;;;;;;5031262;28;20041;-55
2021/01/31 06:06:20;;;;;;;38.30;20.52;;;205.50;1996.80;;;;;;5031517;28;20135;-55
2021/01/31 06:08:49;;;;;;;28.83;18.77;;;205.70;2022.40;;;;;;5030858;28;20484;-57
2021/01/31 06:11:27;;;;;;;30.38;17.45;;;230.50;1945.60;;;;;;5031816;28;20043;-55
2021/01/31 06:14:16;;;;;;;29.90;17.98;;;230.60;1945.60;;;;;;5031221;28;20029;-55
2021/01/31 06:16:44;;;;;;;29.65;18.33;;;230.50;1996.80;;;;;;5030939;28;20034;-55
2021/01/31 06:19:30;;;;;;;29.60;18.88;;;230.50;1971.20;;;;;;5030975;28;20026;-55
2021/01/31 06:21:56;;;;;;;30.35;18.98;;;230.40;1971.20;;;;;;5031344;28;20058;-55
2021/01/31 06:24:21;;;;;;;28.13;18.20;;;205.60;2048.00;;;;;;5031256;28;20068;-56
2021/01/31 06:26:48;;;;;;;28.02;18.27;;;205.50;2073.60;;;;;;5032832;28;20033;-55
2021/01/31 06:29:41;;;;;;;27.83;18.88;;;205.60;2099.20;;;;;;5034502;28;20041;-55
2021/01/31 06:32:11;;;;;;;30.08;19.17;;;205.60;2099.20;;;;;;5035302;28;20037;-58
2021/01/31 06:34:48;;;;;;;30.55;19.85;;;230.40;2073.60;;;;;;5034994;28;20041;-55
2021/01/31 06:37:51;;;;;;;31.70;19.92;;;205.70;2124.80;;;;;;5021787;28;20021;-56
2021/01/31 06:40:38;;;;;;;32.63;20.73;;;205.70;2150.40;;;;;;5034648;28;20036;-55
2021/01/31 06:43:09;;;;;;;34.65;21.33;;;230.40;2124.80;;;;;;5040727;28;20468;-57
2021/01/31 06:46:13;;;;;;;31.48;21.83;;;205.70;2150.40;;;;;;5048575;28;20511;-57
2021/01/31 06:49:01;;;;;;;39.97;22.98;;;205.70;2124.80;;;;;;5032135;28;20033;-57
2021/01/31 06:51:48;;;;;;;40.13;25.02;;;230.50;2124.80;;;;;;5036205;28;20064;-55
2021/01/31 06:54:44;;;;;;;41.17;24.38;;;230.40;2124.80;;;;;;5031366;28;20499;-55
2021/01/31 06:57:25;;;;;;;43.67;25.10;;;205.70;2124.80;;;;;;5033257;28;20014;-55
2021/01/31 06:59:59;;;;;;;46.65;26.38;;;205.70;2150.40;;;;;;5035163;28;20467;-55
2021/01/31 07:02:34;;;;;;;41.17;24.65;;;205.60;2150.40;;;;;;5033504;28;20036;-55
2021/01/31 07:05:34;;;;;;;43.15;25.65;;;205.70;2150.40;;;;;;5034588;28;20040;-55
2021/01/31 07:08:20;;;;;;;39.20;26.33;;;205.70;2150.40;;;;;;5032428;28;20030;-56
2021/01/31 07:11:20;;;;;;;37.38;25.48;;;205.70;2150.40;;;;;;5034025;28;20471;-55
2021/01/31 07:14:07;;;;;;;39.42;27.10;;;205.70;2150.40;;;;;;5033165;28;20518;-56
2021/01/31 07:16:49;;;;;;;42.13;27.00;;;205.50;2176.00;;;;;;5034279;28;20029;-56
2021/01/31 07:19:27;;;;;;;41.20;27.17;;;205.60;2176.00;;;;;;5033557;28;20021;-55
2021/01/31 07:22:01;;;;;;;44.85;27.23;;;205.60;2176.00;;;;;;5032676;28;20418;-56
2021/01/31 07:24:52;;;;;;;44.95;27.67;;;205.60;2176.00;;;;;;5033700;28;20476;-55
2021/01/31 07:27:43;;;;;;;40.70;28.38;;;205.60;2176.00;;;;;;5033637;28;20033;-55
2021/01/31 07:30:19;;;;;;;40.80;26.08;;;205.70;2150.40;;;;;;5028066;28;20492;-55
2021/01/31 07:32:54;;;;;;;41.63;27.95;;;205.50;2150.40;;;;;;5033708;28;20912;-55
2021/01/31 07:35:24;;;;;;;43.22;26.73;;;205.50;2176.00;;;;;;5034306;28;20029;-56
2021/01/31 07:37:52;;;;;;;39.92;27.35;;;205.50;2176.00;;;;;;5033003;28;20399;-56
2021/01/31 07:40:21;;;;;;;42.00;28.55;;;205.60;2176.00;;;;;;5032990;28;20014;-56
2021/01/31 07:42:51;;;;;;;45.08;29.23;;;205.50;2201.60;;;;;;5033429;28;20033;-56
2021/01/31 07:45:24;;;;;;;42.80;29.20;;;205.60;2176.00;;;;;;5034424;28;20483;-56
2021/01/31 07:48:10;;;;;;;40.63;27.88;;;205.60;2201.60;;;;;;5032163;28;20072;-56
2021/01/31 07:50:39;;;;;;;47.17;30.35;;;205.50;2201.60;;;;;;5032911;28;20029;-56
2021/01/31 07:53:07;;;;;;;45.85;31.00;;;205.40;2227.20;;;;;;5033119;28;20103;-56
2021/01/31 07:55:34;;;;;;;54.17;30.40;;;205.30;2227.20;;;;;;5033576;28;20477;-56
2021/01/31 07:58:28;;;;;;;51.72;32.22;;;205.30;2252.80;;;;;;5024098;28;20483;-56
2021/01/31 08:00:55;;;;;;;49.00;31.80;;;205.20;2252.80;;;;;;5030413;28;20025;-59
2021/01/31 08:03:37;;;;;;;46.05;29.88;;;205.30;2252.80;;;;;;5033573;28;20068;-59
2021/01/31 08:06:02;;;;;;;46.13;31.15;;;205.40;2227.20;;;;;;5043444;28;20106;-58
2021/01/31 08:08:43;;;;;;;50.00;33.03;;;205.30;2227.20;;;;;;5048211;28;20041;-59
2021/01/31 08:11:17;;;;;;;45.72;31.55;;;205.30;2227.20;;;;;;5047576;28;20026;-59
2021/01/31 08:13:48;;;;;;;48.38;33.33;;;205.20;2252.80;;;;;;5041954;28;20037;-59
2021/01/31 08:16:41;;;;;;;52.35;34.13;;;205.30;2227.20;;;;;;5039856;28;20060;-59
2021/01/31 08:19:09;;;;;;;49.17;32.60;;;205.10;2252.80;;;;;;5032418;28;20476;-59
2021/01/31 08:22:04;;;;;;;58.35;39.03;;;205.30;2252.80;;;;;;5030702;28;20059;-59
2021/01/31 08:24:57;;;;;;;89.00;55.00;;;205.20;2252.80;;;;;;5036471;28;20062;-60
2021/01/31 08:27:38;;;;;;;207.88;110.22;;;205.30;2252.80;;;;;;5048223;28;20028;-60
2021/01/31 08:30:22;;;;;;;207.65;109.30;;;205.30;2227.20;;;;;;5030564;28;20037;-58
2021/01/31 08:33:00;;;;;;;78.22;51.15;;;205.30;2227.20;;;;;;5030242;28;20025;-59
2021/01/31 08:35:41;;;;;;;63.83;48.40;;;205.40;2252.80;;;;;;5029971;28;20041;-59
2021/01/31 08:38:24;;;;;;;67.00;51.33;;;205.50;2227.20;;;;;;5028580;28;20032;-58
2021/01/31 08:41:03;;;;;;;48.72;35.30;;;205.70;2201.60;;;;;;5030364;28;20029;-58
2021/01/31 08:43:43;;;;;;;58.45;38.83;;;205.70;2201.60;;;;;;5031107;28;20423;-60
2021/01/31 08:46:19;;;;;;;53.85;39.83;;;230.40;2176.00;;;;;;5029417;28;20021;-58
2021/01/31 08:49:11;;;;;;;56.63;43.30;;;205.70;2201.60;;;;;;5028619;28;20033;-58
2021/01/31 08:51:45;;;;;;;45.63;33.55;;;230.40;2176.00;;;;;;5028380;28;20025;-60
2021/01/31 08:54:10;;;;;;;45.72;32.95;;;230.40;2176.00;;;;;;5029884;28;20037;-58
2021/01/31 08:56:51;;;;;;;48.58;36.55;;;205.60;2201.60;;;;;;5029505;28;20108;-58
2021/01/31 08:59:48;;;;;;;44.90;32.95;;;205.50;2201.60;;;;;;5028377;28;20486;-58
2021/01/31 09:02:14;;;;;;;44.90;31.10;;;205.70;2201.60;;;;;;5028324;28;20057;-57
2021/01/31 09:04:43;;;;;;;43.03;30.35;;;230.40;2201.60;;;;;;5029070;28;20540;-60
2021/01/31 09:07:10;;;;;;;41.92;29.17;;;230.50;2201.60;;;;;;5028146;28;20057;-58
2021/01/31 09:09:39;;;;;;;66.68;49.60;;;230.70;2150.40;;;;;;5028559;28;20077;-59
2021/01/31 09:12:10;;;;;;;64.82;49.08;;;230.60;2150.40;;;;;;5028248;28;20065;-58
2021/01/31 09:14:38;;;;;;;66.25;52.90;;;230.50;2150.40;;;;;;5028336;28;20040;-58
2021/01/31 09:17:12;;;;;;;51.22;42.28;;;230.60;2176.00;;;;;;5037628;28;20013;-56
2021/01/31 09:19:39;;;;;;;47.65;34.90;;;230.80;2124.80;;;;;;5028523;28;20088;-57
2021/01/31 09:22:12;;;;;;;46.40;31.40;;;230.80;2150.40;;;;;;5028448;28;20026;-57
2021/01/31 09:24:41;;;;;;;42.58;30.48;;;230.80;2124.80;;;;;;5029360;28;20022;-58
2021/01/31 09:27:12;;;;;;;43.63;32.28;;;231.10;2252.80;;;;;;5029612;28;20022;-60
2021/01/31 09:29:38;;;;;;;49.78;33.40;;;231.00;2124.80;;;;;;5028993;28;20104;-61
2021/01/31 09:32:16;;;;;;;65.40;41.10;;;231.00;2124.80;;;;;;5028699;28;20424;-62
2021/01/31 09:34:41;;;;;;;63.17;39.75;;;231.10;2099.20;;;;;;5029221;28;20037;-62
2021/01/31 09:37:24;;;;;;;102.00;59.58;;;231.00;2124.80;;;;;;5028816;28;20026;-61
2021/01/31 09:39:52;;;;;;;62.90;41.05;;;231.10;2124.80;;;;;;5028202;28;20476;-57
2021/01/31 09:42:19;;;;;;;56.33;38.33;;;231.00;2124.80;;;;;;5028564;28;20033;-57
2021/01/31 09:44:51;;;;;;;58.70;43.90;;;231.00;2124.80;;;;;;5028211;28;20041;-59
2021/01/31 09:47:20;;;;;;;54.38;39.80;;;231.00;2150.40;;;;;;5028414;28;20072;-60
2021/01/31 09:49:53;;;;;;;58.58;40.15;;;231.30;2099.20;;;;;;5028113;28;20370;-60
2021/01/31 09:52:19;;;;;;;82.15;53.83;;;256.00;2099.20;;;;;;5029089;28;20021;-59
2021/01/31 09:54:45;;;;;;;75.68;51.55;;;256.10;2073.60;;;;;;5028297;28;20056;-59
2021/01/31 09:57:27;;;;;;;70.28;50.28;;;256.00;2073.60;;;;;;5029196;28;20033;-60
2021/01/31 10:00:09;;;;;;;84.47;67.32;;;256.30;2073.60;;;;;;5025929;28;20079;-60
2021/01/31 10:02:35;;;;;;;66.53;45.90;;;256.40;2048.00;;;;;;5031321;28;20464;-60
2021/01/31 10:05:04;;;;;;;62.75;43.28;;;256.20;2022.40;;;;;;5029920;28;20071;-59
2021/01/31 10:07:42;;;;;;;63.50;42.50;;;256.10;2073.60;;;;;;5031944;28;20056;-60
2021/01/31 10:10:41;;;;;;;58.03;38.90;;;256.10;2048.00;;;;;;5031144;28;20400;-57
2021/01/31 10:13:24;;;;;;;59.13;40.95;;;231.30;2073.60;;;;;;5028523;28;20045;-58
2021/01/31 10:15:56;;;;;;;67.75;45.60;;;256.00;2073.60;;;;;;5029003;28;20169;-58
2021/01/31 10:18:35;;;;;;;97.68;80.63;;;231.20;2099.20;;;;;;5027080;28;20042;-58
2021/01/31 10:21:33;;;;;;;63.85;39.60;;;230.80;2150.40;;;;;;5028218;28;20067;-60
2021/01/31 10:24:03;;;;;;;73.80;49.63;;;231.10;2150.40;;;;;;5027748;28;20033;-60
2021/01/31 10:26:29;;;;;;;60.67;41.90;;;231.20;2150.40;;;;;;5029115;28;20032;-61
2021/01/31 10:29:01;;;;;;;63.35;42.05;;;231.30;2124.80;;;;;;5026178;28;20033;-63
2021/01/31 10:31:30;;;;;;;66.32;43.70;;;231.20;2150.40;;;;;;5030040;28;20112;-61
2021/01/31 10:33:57;;;;;;;64.93;43.03;;;231.30;2124.80;;;;;;5030696;28;20233;-62
2021/01/31 10:36:26;;;;;;;65.82;44.95;;;231.30;2124.80;;;;;;5030331;28;20053;-61
2021/01/31 10:38:53;;;;;;;63.75;41.30;;;256.00;2124.80;;;;;;5029632;28;20379;-59
2021/01/31 10:41:19;;;;;;;66.35;43.08;;;256.10;2124.80;;;;;;5028760;28;20025;-59
2021/01/31 10:44:06;;;;;;;64.22;42.40;;;256.10;2124.80;;;;;;5030026;28;20065;-58
2021/01/31 10:46:34;;;;;;;58.13;37.72;;;256.20;2124.80;;;;;;5029035;28;20029;-62
2021/01/31 10:49:00;;;;;;;54.25;35.47;;;256.30;2073.60;;;;;;5029883;28;20049;-60
2021/01/31 10:51:32;;;;;;;54.72;37.05;;;256.60;2073.60;;;;;;5032178;28;20041;-58
2021/01/31 10:53:59;;;;;;;60.05;37.88;;;256.70;2048.00;;;;;;5031808;28;20033;-59
2021/01/31 10:56:26;;;;;;;63.20;37.65;;;256.90;2073.60;;;;;;5032323;28;20025;-60
2021/01/31 10:58:53;;;;;;;58.67;39.10;;;281.60;2048.00;;;;;;5017362;28;20601;-60
2021/01/31 11:01:19;;;;;;;64.45;39.78;;;281.60;2048.00;;;;;;5031400;28;20061;-59
2021/01/31 11:03:46;;;;;;;59.60;37.67;;;256.80;2022.40;;;;;;5033939;28;20030;-59
2021/01/31 11:06:11;;;;;;;69.55;41.80;;;256.70;2073.60;;;;;;5032115;28;20589;-58
2021/01/31 11:08:37;;;;;;;61.80;37.65;;;256.60;2073.60;;;;;;5051201;28;20110;-57
2021/01/31 11:11:03;;;;;;;55.28;36.58;;;256.60;2048.00;;;;;;5051709;28;20055;-58
2021/01/31 11:13:29;;;;;;;54.58;35.53;;;256.60;2073.60;;;;;;5047757;28;20380;-60
2021/01/31 11:15:55;;;;;;;52.45;34.80;;;256.40;2073.60;;;;;;5025219;28;20035;-59
2021/01/31 11:18:21;;;;;;;52.97;34.72;;;256.20;2099.20;;;;;;5029775;28;20095;-59
2021/01/31 11:20:48;;;;;;;49.78;31.58;;;256.20;2099.20;;;;;;5029240;28;20401;-59
2021/01/31 11:23:14;;;;;;;49.35;32.47;;;256.20;2099.20;;;;;;5026585;28;20107;-59
2021/01/31 11:25:40;;;;;;;52.17;32.35;;;231.30;2124.80;;;;;;5029571;28;20017;-57
2021/01/31 11:28:05;;;;;;;48.95;31.58;;;231.30;2124.80;;;;;;5021943;28;20037;-59
2021/01/31 11:30:31;;;;;;;45.50;30.85;;;230.90;2176.00;;;;;;5025805;28;20105;-58
2021/01/31 11:32:58;;;;;;;47.65;31.95;;;230.80;2201.60;;;;;;5027087;28;20033;-59
2021/01/31 11:35:24;;;;;;;53.33;35.15;;;230.80;2201.60;;;;;;5021331;28;20022;-58
2021/01/31 11:37:50;;;;;;;57.67;34.78;;;230.70;2227.20;;;;;;5020089;28;20029;-58
2021/01/31 11:40:15;;;;;;;53.72;34.95;;;230.70;2227.20;;;;;;5022695;28;20391;-58
2021/01/31 11:42:41;;;;;;;50.78;33.72;;;230.80;2227.20;;;;;;5030826;28;20029;-58
2021/01/31 11:45:09;;;;;;;55.90;36.47;;;230.90;2227.20;;;;;;5030878;28;20096;-59
2021/01/31 11:47:35;;;;;;;56.85;37.10;;;230.80;2227.20;;;;;;5030026;28;20014;-58
2021/01/31 11:50:01;;;;;;;54.17;35.63;;;230.80;2227.20;;;;;;5030601;28;20021;-58
2021/01/31 11:52:27;;;;;;;55.55;37.35;;;230.70;2252.80;;;;;;5028402;28;20022;-58
2021/01/31 11:54:53;;;;;;;54.80;35.08;;;230.50;2252.80;;;;;;5024435;28;20033;-60
2021/01/31 11:57:19;;;;;;;45.65;31.50;;;205.60;2252.80;;;;;;5031319;28;20022;-60
2021/01/31 11:59:45;;;;;;;52.67;35.28;;;205.50;2252.80;;;;;;5028096;28;20387;-58
2021/01/31 12:02:10;;;;;;;56.03;35.50;;;205.60;2252.80;;;;;;5026176;28;20033;-59
2021/01/31 12:04:37;;;;;;;55.38;35.90;;;205.50;2252.80;;;;;;5012983;28;20042;-59
2021/01/31 12:07:07;;;;;;;52.00;33.88;;;205.60;2252.80;;;;;;5015841;28;20077;-59
2021/01/31 12:09:34;;;;;;;49.83;32.60;;;205.60;2252.80;;;;;;5012621;28;20048;-60
2021/01/31 12:12:00;;;;;;;50.63;33.53;;;205.50;2252.80;;;;;;5039500;28;20081;-58
2021/01/31 12:14:26;;;;;;;44.42;30.95;;;205.70;2252.80;;;;;;5018032;28;20037;-58
2021/01/31 12:16:52;;;;;;;52.38;34.35;;;205.60;2252.80;;;;;;5029972;28;20105;-58
2021/01/31 12:19:19;;;;;;;53.53;34.50;;;205.70;2252.80;;;;;;5022605;28;20555;-57
2021/01/31 12:21:44;;;;;;;49.95;32.53;;;205.60;2252.80;;;;;;5022667;28;20084;-59
2021/01/31 12:24:10;;;;;;;50.75;32.90;;;205.70;2252.80;;;;;;5024891;28;20029;-59
2021/01/31 12:26:36;;;;;;;47.67;32.03;;;205.60;2252.80;;;;;;5012790;28;20487;-58
2021/01/31 12:29:03;;;;;;;47.20;31.65;;;205.70;2252.80;;;;;;5041065;28;20124;-58
2021/01/31 12:31:29;;;;;;;45.63;28.10;;;205.70;2252.80;;;;;;5048737;28;20491;-58